PDA RSS
Вы не зарегистрированы Регистрация | Поиск | Войти

Форум гитаристов

Задать новую тему

СПИСОК РАЗДЕЛОВ

Поиск музыкантов

Куплю-продам
Услуги
Полезная информация
Общение
Барабанщикам
Гитаристам
Звук и звучание
Задай вопрос
Регионы
SHAMRAY GUITARS
Форумы друзей
MUSICFORUMS.RU
Наши друзья
Автор
Тема: Как думаете какой звук будет получше??
Время: 12.01.2012 06:45 
Здравствуйте. Ваш профайл
отредактирован

Как думаете какой звук будет лучше - от богнера или от фрайетта, если каждую из сравниваемых голов уронить на цементный пол с одинаковой высоты 3-4 метра?
Автор
Тема: Re: Как думаете какой звук будет получше??
Время: 12.01.2012 07:15 



D7 , от бана :idea2:
Автор
Тема: Re: Как думаете какой звук будет получше??
Время: 12.01.2012 07:24 
Пермь / Минск
Ibanez RG7EXFX2, Ibanez RG7321

>Как думаете какой звук будет лучше - от богнера или от фрайетта, если каждую из сравниваемых голов уронить на цементный пол с одинаковой высоты 3-4 метра?
грамотно оформленный полноценный репорт с семплами в студию :idea2: нет семплов - нет звука
Автор
Тема: Re: Как думаете какой звук будет получше??
Время: 12.01.2012 07:52 
Здравствуйте. Ваш профайл
отредактирован

Надо найти хороший цементный пол повышенной прочности.
Автор
Тема: Re: Как думаете какой звук будет получше??
Время: 12.01.2012 08:18 
Пермь / Минск
Ibanez RG7EXFX2, Ibanez RG7321

:dont: это не аргумент, любой еропорт недействующий подойдет
Автор
Тема: Re: Как думаете какой звук будет получше??
Время: 12.01.2012 09:07 
Здравствуйте. Ваш профайл
отредактирован

Ну вроде бы они все не действуют сейчас из за погоды . В сугроб уронишь - не найдешь
Автор
Тема: Re: Как думаете какой звук будет получше??
Время: 12.01.2012 09:16 

Dean Vendetta 7str

годная тема :199: :alko_2464:
Автор
Тема: Re: Как думаете какой звук будет получше??
Время: 12.01.2012 09:52 
Пермь / Минск
Ibanez RG7EXFX2, Ibanez RG7321

>Ну вроде бы они все не действуют сейчас из за погоды . В сугроб уронишь - не найдешь
С чего эт они не работают? :dont: Везде слабый снег, Ксц не ахти и видимость средненькая, а так все ок
пруфлинки за 09-30 утра по московскому
Домодедово - UUDD 120530Z 18006MPS 2100 -SN BKN007 OVC100 M04/M05 Q1004 64590193 14590193 TEMPO 1000
Внуково - UUWW 120530Z 21006MPS 5000 -SN SCT009 BKN023 OVC100 M04/M05 Q1004 19490342 NOSIG
Шереметьего - UUEE 120530Z 22007MPS 3000 -SN -BLSN OVC009 M04/M04 Q1003 RESN NOSIG RMK 75490327 25490330
Чкаловский - UUMO 120530Z 22005MPS 3400 -SN BKN006 OVC015 M04/M05 Q1004 NOSIG RMK QFE738/0984 QBB200 26452039
в Перми даже поприличнее, хоть и -14 - USPP 120530Z 21003MPS 6000 -SN BKN040 OVC070 M14/M16 Q1013 21490545 NOSIG RMK QFE749/0999

Мы же взрослые люди :7: лично лопатой расчищу квадрат 5х5 в Бахаревке. Или пеар? :ulyb:
Автор
Тема: Re: Как думаете какой звук будет получше??
Время: 12.01.2012 10:32 
Здравствуйте. Ваш профайл
отредактирован

Отлично. Ищем спонсоров.
Для уборки снега предоставю бутиковые лопаты fiskar
Автор
Тема: Re: Как думаете какой звук будет получше??
Время: 12.01.2012 10:38 

куй,руки и топор

D7 надо в тему про гитары александерсон,пусть друг другу впаривают :idea2:
Гитары выше 1-го килобакса кал и китай.
Автор
Тема: Re: Как думаете какой звук будет получше??
Время: 12.01.2012 10:46 
Пермь / Минск
Ibanez RG7EXFX2, Ibanez RG7321

>Отлично. Ищем спонсоров.
Зачем? Богнер и фрайетт, я так понимаю, имеются уже. Еропорт недействующий имеется в 10 минутах езды рулём. Лопата у меня есть. Доставку испытуемых до места проведения следственного эксперимента беру на себя :idea2: есть даже аппаратура для съемки семплов :idea2:
Автор
Тема: Re: Как думаете какой звук будет получше??
Время: 12.01.2012 10:48 
Санкт-Петербург
Гитара

Требую долгожданных репрессий! :7:
Ищу басиста играть сёрф:
https://vk.com/theaircatsband
https://theaircatsband.bandcamp.com/
Автор
Тема: Re: Как думаете какой звук будет получше??
Время: 12.01.2012 11:16 
Bite my shiny metal
A$$

Слонопотам , деловой разговор :agree:

А то D7 тока всякую ересь городить умеет. Мужик сказал - мужик сделал! :gop:
Shiftuya shit
Автор
Тема: Re: Как думаете какой звук будет получше??
Время: 12.01.2012 11:18 
Bite my shiny metal
A$$

PS и воще тему нах на эхфекты :idea2: а там уже закрыть и аффтара забанить :kl1:
Shiftuya shit
Автор
Тема: Re: Как думаете какой звук будет получше??
Время: 12.01.2012 11:25 
Здравствуйте. Ваш профайл
отредактирован

>Мужик сказал - мужик сделал!

скидывайся на тест
Автор
Тема: Re: Как думаете какой звук будет получше??
Время: 12.01.2012 11:29 

куй,руки и топор

>скидывайся на тест
да вроде как ты затеял эту тему :4:
Гитары выше 1-го килобакса кал и китай.
Автор
Тема: Re: Как думаете какой звук будет получше??
Время: 12.01.2012 11:35 
Санкт-Петербург
Гитара

Тут один как-то Фендер проспорил и до сих пор не отдал... :sarcastic: Электорат жеста не понял, репутация упала.
Ищу басиста играть сёрф:
https://vk.com/theaircatsband
https://theaircatsband.bandcamp.com/
Автор
Тема: Re: Как думаете какой звук будет получше??
Время: 12.01.2012 11:35 
Пермь / Минск
Ibanez RG7EXFX2, Ibanez RG7321

>какой звук будет лучше - от богнера или от фрайетта, если каждую из сравниваемых голов уронить на цементный пол
>скидывайся на тест
Шо, и разиэльку будем на цементный пол ронять? :cry:
Закрытая тема